x

Buoy F01 - West Penobscot Bay (44033) Wave Buoy

8:04 - Fri 20th Jan 2017 All times are EST. -5 hours from GMT.

  • Sig Wave height 3.0ft
  • Peak Period 11s
  • Wind
    11mph, 13mph gusts
  • Sea Temp 39°f
  • Luft Temp 36°f
  • Sea Pressure 1016.1mb
  • Buoy F01 - West Penobscot Bay
  • Buoy F01 - West Penobscot Bay

More Historic Weather Station data

Upgrade to MSW Pro to gain access to the past 30 days of data for over 8000 Wavebouys and Weather Stations around the globe.

Join Pro

Comparision Forecast

View Surf forecast
   
Fr 01/20 8:04 3ft 11s 11 13 mph 1016.1mb 39f 36f
7:04 2.5ft 11s 11 13 mph 1015.9mb 39f 35f
6:04  -   -  11 13 mph 1015.2mb 38f 34f
5:04 2.5ft 11s 9 11 mph 1014.3mb 38f 37f
4:04 3ft 11s 13 18 mph 1013.9mb 38f 36f
3:04 1.6ft 3s 16 18 mph 1014.3mb 38f 37f
2:04  -   -  18 22 mph 1014.2mb 38f 36f
1:04 3.5ft 11s 18 20 mph 1015.2mb 38f 37f
12:04 3.5ft 11s 16 20 mph 1015.5mb 38f 37f
Do 01/19 11:04 3ft 11s 11 16 mph 1015.1mb 38f 38f
10:04 4ft 8s 16 20 mph 1014.9mb 39f 39f
9:04 3.5ft 11s 13 18 mph 1014.7mb 39f 38f
8:04 3ft 8s 7 9 mph 1014.4mb 39f 37f
7:04 2.5ft 8s 7
mph
1014mb 38f 37f
6:04 2.5ft 8s 7 9 mph 1013.5mb 38f 38f
5:04 2.5ft 8s 7 9 mph 1012.6mb 38f 39f
4:04 2.5ft 8s 9
mph
1012.4mb 38f 39f
3:04 2.5ft 8s 11 13 mph 1012mb 38f 39f
2:04 2.5ft 8s 7
mph
1012.1mb 38f 38f
1:04 3ft 8s 7
mph
1012.7mb 39f 37f
12:04 2.5ft 8s 9 13 mph 1012.8mb 39f 35f
11:04 2.5ft 8s 4
mph
1014mb 39f 34f
10:04 2.5ft 8s 2 4 mph 1014.9mb 39f 33f
9:04 3.5ft 8s 7
mph
1015.1mb 39f 32f
8:04 3.5ft 8s 9 11 mph 1015.1mb 39f 32f
7:04 2.5ft 8s 7
mph
1015mb 39f 32f
6:04 2.5ft 8s 7 9 mph 1014.9mb 39f 32f
5:04 2.5ft 6s 7 9 mph 1014.7mb 39f 31f
4:04 2.5ft 8s 9 11 mph 1014.9mb 39f 31f
3:04 2.5ft 8s 9 11 mph 1015.5mb 39f 32f
2:04 2.5ft 8s 9 11 mph 1015.2mb 39f 33f
1:04 3ft 8s 9 11 mph 1016mb 39f 32f
12:04 3ft 8s 11 13 mph 1016.5mb 39f 31f
Mi 01/18 11:04 3.5ft 8s 13 16 mph 1017mb 39f 31f
10:04 3.5ft 6s 13 16 mph 1017.8mb 39f 31f
9:04 3.5ft 8s 13 18 mph 1018.2mb 39f 31f
8:04 3.5ft 8s 13 18 mph 1018.6mb 39f 31f
7:04 4.5ft 8s 16 20 mph 1019mb 39f 31f
6:04 4ft 8s 16 20 mph 1018.7mb 39f 31f
5:04 4ft 8s 16 20 mph 1018.2mb 39f 32f
4:04 4ft 8s 13 18 mph 1018.2mb 39f 32f
3:04 4.5ft 8s 16 20 mph 1018.3mb 39f 33f
2:04 4.5ft 6s 18 22 mph 1018.1mb 40f 33f
1:04 4ft 6s 18 22 mph 1017.9mb 40f 33f
12:04 4.5ft 8s 18 22 mph 1018.4mb 40f 33f
11:04 4.5ft 8s 20 25 mph 1018.9mb 40f 33f
10:04 5ft 8s 22 27 mph 1019.6mb 39f 32f
9:04 4ft 6s 20 27 mph 1019.8mb 39f 33f
8:04 3.5ft 6s 20 27 mph 1020mb 39f 33f
7:04 3.5ft 5s 20 25 mph 1019.8mb 39f 32f
6:04 3ft 5s 22 27 mph 1019.7mb 39f 32f
5:04 2.5ft 5s 18 20 mph 1019.6mb 39f 33f
4:04 2.5ft 3s 18 20 mph 1020mb 40f 30f
3:04 2ft 5s 16 20 mph 1020.8mb 40f 30f
2:04 1.6ft 5s 18 20 mph 1021.6mb 40f 31f
1:04 1.6ft 5s 16 18 mph 1022mb 40f 30f
12:04 1.6ft 3s 18 20 mph 1022.7mb 40f 30f
Di 01/17 11:04 1.3ft 3s 18 20 mph 1023.2mb 39f 30f
10:04 1.6ft 2s 13 18 mph 1023.9mb 39f 31f
9:04 1.3ft 2s 16 18 mph 1024mb 39f 33f
8:04 1.3ft 5s 13 16 mph 1024.1mb 39f 34f
7:04 1ft 5s 13 18 mph 1024.1mb 39f 34f
6:04 1ft 6s 13 16 mph 1024.1mb 39f 35f
5:04 1ft 3s 11 16 mph 1024.1mb 39f 36f
4:04 1.3ft 6s 13 16 mph 1023.3mb 40f 36f
3:04 1ft 6s 11 13 mph 1023.3mb 40f 36f
2:04 1ft 3s 13 16 mph 1023.3mb 40f 36f
1:04 1.3ft 5s 11 13 mph 1023.3mb 40f 35f
12:04 1.3ft 3s 13 16 mph 1023.5mb 39f 35f
11:04 2ft 6s 16 20 mph 1023.9mb 39f 35f
10:04 2ft 6s 18 22 mph 1024.4mb 39f 36f
9:04 1.6ft 6s 16 20 mph 1024.3mb 39f 37f
8:04 1.6ft 6s 11 13 mph 1023.7mb 39f 37f
7:04 1.6ft 6s 9 11 mph 1022.5mb 39f 35f
6:04 2ft 6s 9 11 mph 1021.7mb 39f 36f
5:04 2ft 6s 11
mph
1020.9mb 39f 35f
4:04 2ft 6s 9 11 mph 1020.6mb 39f 35f
3:04 1.6ft 6s 11
mph
1020.6mb 39f 36f
2:04 1.6ft 6s 9 11 mph 1020.1mb 39f 37f
1:04 2ft 8s 9 11 mph 1019.4mb 39f 36f
12:04 2ft 6s 9 11 mph 1019.3mb 39f 35f
Mo 01/16 11:04 2.5ft 6s 7 9 mph 1020.1mb 39f 34f
10:04 2.5ft 6s 13 16 mph 1020.1mb 39f 36f
9:04 2.5ft 6s 16 20 mph 1020.5mb 39f 38f
8:04 2ft 6s 18 20 mph 1020.7mb 39f 38f
7:04 2.5ft 8s 18 25 mph 1020.9mb 39f 38f
6:04 2.5ft 5s 18 20 mph 1020.9mb 40f 38f
5:04 2.5ft 5s 20 25 mph 1021mb 39f 38f
4:04 3.5ft 5s 25 29 mph 1020.9mb 40f 38f
3:04 2.5ft 4s 22 29 mph 1021.7mb 39f 37f